Time;durP1;ratioP1;P1;durP2;ratioP2;P2;SDS_P1;SDS_P2;PMS_P1;PMS_P2;Temp;Humidity;BMP_temperature;BMP_pressure;BME280_temperature;BME280_humidity;BME280_pressure;Samples;Min_cycle;Max_cycle;Signal;HPM_P1;HPM_P2
2021/11/29 00:02:05;;;;;;;17.60;10.03;;;;;;;10.30;72.74;98845.06;1763776;80;21106;-65
2021/11/29 00:04:32;;;;;;;16.90;10.93;;;;;;;10.34;72.65;98845.94;1764929;79;21105;-67
2021/11/29 00:07:00;;;;;;;18.23;10.68;;;;;;;10.35;72.70;98849.38;1756434;78;21591;-67
2021/11/29 00:09:28;;;;;;;17.95;10.25;;;;;;;10.31;73.02;98844.91;1765622;79;21007;-67
2021/11/29 00:11:54;;;;;;;16.07;9.63;;;;;;;10.33;73.13;98840.34;1748219;80;21054;-67
2021/11/29 00:14:20;;;;;;;14.98;9.73;;;;;;;10.30;73.08;98831.42;1771476;79;21109;-67
2021/11/29 00:16:49;;;;;;;18.70;9.90;;;;;;;10.29;73.16;98827.63;1766177;78;21512;-65
2021/11/29 00:19:15;;;;;;;12.85;8.50;;;;;;;10.28;73.05;98821.56;1763692;78;22250;-66
2021/11/29 00:21:43;;;;;;;15.60;9.05;;;;;;;10.34;72.86;98820.97;1760276;78;21604;-65
2021/11/29 00:24:09;;;;;;;13.03;8.15;;;;;;;10.38;72.87;98807.81;1773087;78;21438;-66
2021/11/29 00:26:36;;;;;;;15.05;9.18;;;;;;;10.41;72.93;98794.86;1762263;78;21054;-66
2021/11/29 00:29:04;;;;;;;14.98;9.43;;;;;;;10.41;72.94;98789.59;1755544;79;21078;-66
2021/11/29 00:31:30;;;;;;;18.90;10.63;;;;;;;10.38;73.18;98791.23;1719712;79;21109;-67
2021/11/29 00:33:58;;;;;;;15.58;8.83;;;;;;;10.32;73.43;98790.08;1767000;78;21101;-66
2021/11/29 00:36:24;;;;;;;13.72;9.15;;;;;;;10.31;73.65;98779.69;1765972;80;21113;-65
2021/11/29 00:38:51;;;;;;;14.60;8.18;;;;;;;10.31;73.74;98774.42;1758611;79;21086;-66
2021/11/29 00:41:18;;;;;;;14.03;7.90;;;;;;;10.32;73.53;98775.61;1762357;78;21058;-65
2021/11/29 00:43:46;;;;;;;13.35;8.48;;;;;;;10.40;73.34;98772.16;1744212;80;21007;-65
2021/11/29 00:46:13;;;;;;;13.10;7.92;;;;;;;10.44;73.27;98760.36;1759166;78;21054;-66
2021/11/29 00:48:39;;;;;;;12.70;7.97;;;;;;;10.50;73.27;98761.00;1740664;80;21054;-66
2021/11/29 00:51:06;;;;;;;14.68;8.95;;;;;;;10.53;73.28;98758.05;1730788;80;21068;-66
2021/11/29 00:53:34;;;;;;;14.07;8.40;;;;;;;10.52;73.48;98745.91;1769286;78;21173;-67
2021/11/29 00:56:00;;;;;;;16.17;9.20;;;;;;;10.53;73.54;98737.52;1763407;78;21093;-66
2021/11/29 00:58:26;;;;;;;17.40;9.43;;;;;;;10.52;73.37;98747.22;1771789;78;21090;-66
2021/11/29 01:00:53;;;;;;;13.72;8.53;;;;;;;10.50;73.41;98741.78;1774171;80;21030;-66
2021/11/29 01:03:19;;;;;;;14.40;8.20;;;;;;;10.53;73.30;98734.38;1767134;78;21113;-67
2021/11/29 01:05:46;;;;;;;14.03;8.38;;;;;;;10.62;73.00;98727.82;1768093;80;21055;-66
2021/11/29 01:08:14;;;;;;;13.98;8.13;;;;;;;10.64;72.84;98721.89;1793128;78;21008;-66
2021/11/29 01:10:41;;;;;;;12.65;8.45;;;;;;;10.66;72.85;98714.18;1766122;78;21097;-67
2021/11/29 01:13:08;;;;;;;15.18;8.43;;;;;;;10.67;72.83;98718.94;1775780;78;21081;-67
2021/11/29 01:15:36;;;;;;;18.35;9.23;;;;;;;10.61;72.78;98715.17;1742504;80;21033;-66
2021/11/29 01:18:08;;;;;;;16.17;8.73;;;;;;;10.55;72.97;98703.98;1768220;78;21088;-67
2021/11/29 01:20:36;;;;;;;16.15;8.55;;;;;;;10.50;73.18;98707.09;1765440;78;21164;-66
2021/11/29 01:23:02;;;;;;;14.23;9.08;;;;;;;10.46;73.21;98705.79;1767451;78;21091;-66
2021/11/29 01:25:29;;;;;;;12.88;8.13;;;;;;;10.46;73.22;98711.55;1768659;78;21081;-67
2021/11/29 01:27:56;;;;;;;16.35;8.38;;;;;;;10.54;73.28;98713.69;1763589;78;21589;-66
2021/11/29 01:30:22;;;;;;;13.03;8.10;;;;;;;10.57;73.15;98712.52;1761913;78;22212;-66
2021/11/29 01:32:49;;;;;;;13.62;8.80;;;;;;;10.60;73.22;98700.36;1770366;78;21593;-67
2021/11/29 01:35:15;;;;;;;14.60;8.68;;;;;;;10.63;73.47;98697.41;1767160;78;21650;-66
2021/11/29 01:37:41;;;;;;;16.62;8.43;;;;;;;10.63;73.46;98692.66;1767552;79;21975;-68
2021/11/29 01:40:09;;;;;;;15.55;9.53;;;;;;;10.64;73.52;98694.28;1766379;78;21078;-65
2021/11/29 01:42:35;;;;;;;15.68;8.63;;;;;;;10.61;73.49;98683.61;1763321;78;21543;-65
2021/11/29 01:45:02;;;;;;;13.80;8.50;;;;;;;10.60;73.45;98681.95;1766786;79;21513;-68
2021/11/29 01:47:29;;;;;;;14.95;7.58;;;;;;;10.60;73.16;98671.43;1765254;78;21054;-66
2021/11/29 01:49:55;;;;;;;12.60;7.85;;;;;;;10.64;72.97;98666.19;1743109;80;21034;-66
2021/11/29 01:52:22;;;;;;;13.25;8.03;;;;;;;10.68;72.95;98670.62;1771010;78;20998;-66
2021/11/29 01:54:48;;;;;;;13.60;7.85;;;;;;;10.71;73.08;98668.98;1768042;80;20988;-66
2021/11/29 01:57:15;;;;;;;15.08;8.25;;;;;;;10.72;73.13;98663.52;1769926;78;21105;-66
2021/11/29 01:59:43;;;;;;;16.25;8.25;;;;;;;10.75;73.22;98667.14;1764529;78;21113;-66
2021/11/29 02:02:11;;;;;;;15.08;8.93;;;;;;;10.74;73.11;98664.20;1770995;78;21671;-67
2021/11/29 02:04:38;;;;;;;11.55;7.53;;;;;;;10.74;73.11;98664.20;1746534;78;21560;-66
2021/11/29 02:07:05;;;;;;;12.47;7.40;;;;;;;10.74;73.05;98654.16;1767851;78;21082;-66
2021/11/29 02:09:31;;;;;;;12.70;7.08;;;;;;;10.76;72.85;98652.20;1765886;78;22524;-66
2021/11/29 02:11:58;;;;;;;11.28;6.08;;;;;;;10.82;72.54;98648.88;1736403;80;21655;-65
2021/11/29 02:14:24;;;;;;;12.40;6.47;;;;;;;10.88;72.49;98644.28;1766811;78;21878;-66
2021/11/29 02:16:51;;;;;;;13.45;7.33;;;;;;;10.91;72.31;98632.58;1742713;80;21072;-65
2021/11/29 02:19:18;;;;;;;12.65;7.60;;;;;;;10.94;72.31;98634.41;1768230;78;21029;-65
2021/11/29 02:21:45;;;;;;;13.08;7.17;;;;;;;10.93;72.44;98631.94;1744746;80;21512;-65
2021/11/29 02:24:11;;;;;;;11.85;7.45;;;;;;;10.89;72.33;98631.46;1773258;80;21062;-65
2021/11/29 02:26:38;;;;;;;12.73;7.45;;;;;;;10.86;72.60;98629.63;1740331;80;21136;-66
2021/11/29 02:29:14;;;;;;;14.75;7.22;;;;;;;10.84;72.46;98631.11;1744488;80;21078;-65
2021/11/29 02:31:45;;;;;;;12.68;7.40;;;;;;;10.79;72.50;98625.53;1771540;78;21709;-65
2021/11/29 02:34:15;;;;;;;9.78;5.45;;;;;;;10.81;72.44;98620.95;1771314;78;21120;-67
2021/11/29 02:36:42;;;;;;;10.58;6.67;;;;;;;10.85;72.32;98622.75;1766990;78;21624;-65
2021/11/29 02:39:11;;;;;;;10.08;5.72;;;;;;;10.90;72.27;98625.19;1767498;78;21655;-65
2021/11/29 02:42:32;;;;;;;10.90;6.17;;;;;;;10.99;72.57;98615.45;1793707;79;22388;-66
2021/11/29 02:44:58;;;;;;;12.30;6.83;;;;;;;11.00;72.53;98616.30;1768782;80;21063;-67
2021/11/29 02:47:25;;;;;;;11.28;6.45;;;;;;;11.01;72.48;98611.34;1768636;80;21530;-69
2021/11/29 02:49:51;;;;;;;10.50;6.40;;;;;;;10.97;72.36;98606.92;1764449;80;21580;-67
2021/11/29 02:52:19;;;;;;;11.03;6.00;;;;;;;10.95;72.41;98611.53;1765659;80;21062;-67
2021/11/29 02:54:46;;;;;;;10.93;5.53;;;;;;;10.87;72.46;98601.84;1773764;80;21059;-67
2021/11/29 02:57:17;;;;;;;9.78;5.87;;;;;;;10.89;72.38;98602.52;1768384;80;21029;-66
2021/11/29 02:59:43;;;;;;;9.70;5.75;;;;;;;10.91;72.13;98597.90;1748907;80;21735;-68
2021/11/29 03:02:13;;;;;;;8.83;4.80;;;;;;;10.93;72.25;98584.07;1766410;80;21662;-67
2021/11/29 03:04:40;;;;;;;9.28;5.33;;;;;;;10.99;72.25;98577.80;1770232;80;21607;-67
2021/11/29 03:07:07;;;;;;;10.10;5.37;;;;;;;10.95;72.20;98566.30;1742616;80;22461;-67
2021/11/29 03:09:34;;;;;;;8.38;4.72;;;;;;;10.94;72.28;98565.14;1768888;80;21066;-66
2021/11/29 03:12:03;;;;;;;9.75;4.80;;;;;;;10.89;72.29;98564.84;1767083;80;21081;-66
2021/11/29 03:14:30;;;;;;;9.60;5.12;;;;;;;10.83;72.36;98559.77;1765717;80;21136;-68
2021/11/29 03:16:58;;;;;;;9.08;4.95;;;;;;;10.77;72.46;98555.17;1735412;80;21624;-68
2021/11/29 03:19:30;;;;;;;11.43;4.33;;;;;;;10.74;72.55;98555.50;1771774;80;21601;-68
2021/11/29 03:21:57;;;;;;;9.15;5.12;;;;;;;10.78;72.48;98554.19;1765556;80;21073;-67
2021/11/29 03:24:24;;;;;;;8.20;4.92;;;;;;;10.80;72.39;98545.63;1770189;80;21484;-67
2021/11/29 03:26:51;;;;;;;9.88;5.17;;;;;;;10.82;72.50;98534.94;1769785;80;21176;-66
2021/11/29 03:29:20;;;;;;;10.03;5.30;;;;;;;10.84;72.69;98534.27;1740748;80;21089;-66
2021/11/29 03:31:51;;;;;;;12.05;4.90;;;;;;;10.85;72.78;98532.78;1713576;81;21114;-67
2021/11/29 03:34:15;;;;;;;7.95;4.53;;;;;;;10.84;72.70;98525.05;1712490;83;21509;-67
2021/11/29 03:36:44;;;;;;;7.37;4.12;;;;;;;10.82;72.60;98528.36;1704440;81;21129;-68
2021/11/29 03:39:20;;;;;;;9.13;4.80;;;;;;;10.78;72.62;98523.94;1706100;83;21054;-67
2021/11/29 03:41:47;;;;;;;7.78;4.60;;;;;;;10.80;72.64;98521.14;1676956;84;21135;-68
2021/11/29 03:44:14;;;;;;;9.55;4.70;;;;;;;10.86;72.30;98520.44;1739393;80;21541;-67
2021/11/29 03:46:42;;;;;;;8.70;4.50;;;;;;;10.90;72.24;98516.49;1759415;80;21561;-66
2021/11/29 03:49:08;;;;;;;7.85;4.37;;;;;;;10.91;72.22;98514.16;1758060;80;21165;-68
2021/11/29 03:51:36;;;;;;;7.90;4.58;;;;;;;10.89;72.52;98513.52;1761602;80;21073;-69
2021/11/29 03:54:03;;;;;;;9.18;4.87;;;;;;;10.87;72.42;98501.85;1765240;79;21050;-67
2021/11/29 03:56:30;;;;;;;7.35;4.62;;;;;;;10.84;72.48;98506.13;1761603;80;21047;-67
2021/11/29 03:58:57;;;;;;;8.58;4.40;;;;;;;10.80;72.43;98490.38;1762023;80;21045;-70
2021/11/29 04:01:23;;;;;;;7.67;4.17;;;;;;;10.76;72.26;98495.67;1757784;80;21125;-67
2021/11/29 04:03:50;;;;;;;9.08;5.12;;;;;;;10.80;72.25;98489.06;1772935;80;21113;-68
2021/11/29 04:06:17;;;;;;;7.67;4.67;;;;;;;10.87;72.18;98483.94;1761577;80;21011;-67
2021/11/29 04:08:43;;;;;;;9.88;5.15;;;;;;;10.88;71.98;98479.83;1742776;80;21113;-69
2021/11/29 04:11:10;;;;;;;9.95;6.17;;;;;;;10.90;71.97;98480.47;1768052;79;21062;-67
2021/11/29 04:13:36;;;;;;;9.80;5.58;;;;;;;10.88;72.05;98479.02;1766456;80;23918;-67
2021/11/29 04:16:04;;;;;;;8.05;5.05;;;;;;;10.87;72.09;98466.84;1760169;80;21045;-66
2021/11/29 04:18:31;;;;;;;9.50;5.65;;;;;;;10.84;72.17;98461.41;1759142;80;21036;-69
2021/11/29 04:20:58;;;;;;;9.13;4.83;;;;;;;10.82;72.00;98454.19;1764045;80;21066;-67
2021/11/29 04:23:24;;;;;;;8.05;4.65;;;;;;;10.77;72.04;98456.52;1727621;82;21094;-67
2021/11/29 04:25:56;;;;;;;8.33;4.87;;;;;;;10.76;71.94;98447.00;1731627;81;21096;-67
2021/11/29 04:28:19;;;;;;;8.53;5.15;;;;;;;10.81;71.84;98457.83;1766478;80;21049;-68
2021/11/29 04:30:46;;;;;;;8.18;4.62;;;;;;;10.84;71.86;98453.52;1740328;80;21090;-67
2021/11/29 04:33:13;;;;;;;9.75;5.40;;;;;;;10.88;71.71;98456.65;1761655;80;21063;-68
2021/11/29 04:35:39;;;;;;;9.15;5.37;;;;;;;10.90;71.89;98459.42;1762784;80;21100;-67
2021/11/29 04:38:07;;;;;;;10.13;5.37;;;;;;;10.90;71.75;98459.42;1770248;80;21588;-67
2021/11/29 04:40:34;;;;;;;8.80;4.80;;;;;;;10.86;71.69;98452.03;1764663;80;21572;-68
2021/11/29 04:43:01;;;;;;;8.03;5.28;;;;;;;10.83;71.66;98453.20;1748096;80;21051;-68
2021/11/29 04:45:32;;;;;;;10.45;6.47;;;;;;;10.80;71.61;98448.28;1748816;81;21031;-68
2021/11/29 04:48:01;;;;;;;12.20;5.80;;;;;;;10.73;71.59;98445.52;1748961;81;21685;-67
2021/11/29 04:50:27;;;;;;;8.95;4.95;;;;;;;10.72;71.45;98445.69;1745794;81;22481;-68
2021/11/29 04:52:54;;;;;;;10.05;5.30;;;;;;;10.75;71.30;98440.90;1683781;83;21066;-66
2021/11/29 04:55:23;;;;;;;12.68;5.78;;;;;;;10.80;71.34;98434.32;1751494;80;21039;-67
2021/11/29 04:57:51;;;;;;;9.28;5.15;;;;;;;10.83;71.17;98432.67;1744066;81;21082;-68
2021/11/29 05:00:18;;;;;;;9.13;5.83;;;;;;;10.79;71.13;98433.48;1751530;81;21051;-68
2021/11/29 05:02:46;;;;;;;10.68;6.35;;;;;;;10.76;71.30;98432.53;1729855;81;21038;-68
2021/11/29 05:05:13;;;;;;;10.23;5.97;;;;;;;10.73;71.44;98428.92;1752883;81;21071;-67
2021/11/29 05:07:39;;;;;;;10.15;6.42;;;;;;;10.70;71.37;98424.00;1747526;81;21506;-67
2021/11/29 05:10:07;;;;;;;9.18;5.80;;;;;;;10.67;71.29;98423.03;1744046;81;21577;-67
2021/11/29 05:12:34;;;;;;;9.03;5.22;;;;;;;10.68;71.36;98417.59;1751129;81;21660;-67
2021/11/29 05:15:01;;;;;;;10.05;5.10;;;;;;;10.77;71.16;98411.80;1750483;81;22209;-68
2021/11/29 05:17:28;;;;;;;9.73;5.08;;;;;;;10.84;71.13;98411.42;1749818;81;21060;-69
2021/11/29 05:19:54;;;;;;;8.98;5.60;;;;;;;10.92;71.20;98411.88;1750101;81;21082;-68
2021/11/29 05:22:21;;;;;;;9.10;5.90;;;;;;;10.99;70.93;98409.38;1753229;80;21109;-66
2021/11/29 05:24:48;;;;;;;10.35;5.58;;;;;;;10.99;70.95;98408.06;1746205;81;21054;-66
2021/11/29 05:27:16;;;;;;;11.08;5.58;;;;;;;11.00;70.93;98412.34;1747680;81;21000;-63
2021/11/29 05:29:43;;;;;;;9.53;6.17;;;;;;;11.01;70.76;98413.97;1750446;81;21125;-64
2021/11/29 05:32:10;;;;;;;14.47;6.83;;;;;;;10.96;70.62;98409.21;1746313;80;21082;-67
2021/11/29 05:34:37;;;;;;;9.05;6.28;;;;;;;10.92;70.56;98421.91;1748957;81;21598;-65
2021/11/29 05:37:04;;;;;;;11.95;6.35;;;;;;;10.88;70.58;98412.73;1750134;81;21112;-64
2021/11/29 05:39:30;;;;;;;8.95;5.83;;;;;;;10.93;70.51;98420.11;1748001;81;21459;-65
2021/11/29 05:41:58;;;;;;;11.22;7.05;;;;;;;10.95;70.71;98418.92;1723666;82;21050;-65
2021/11/29 05:44:24;;;;;;;12.33;7.28;;;;;;;10.99;70.79;98418.08;1704654;82;21077;-69
2021/11/29 05:46:51;;;;;;;10.35;6.70;;;;;;;11.00;70.83;98416.29;1681958;83;21569;-67
2021/11/29 05:49:17;;;;;;;12.73;7.87;;;;;;;10.97;70.82;98406.41;1757652;80;21032;-64
2021/11/29 05:51:44;;;;;;;13.45;7.40;;;;;;;10.95;70.97;98397.88;1761816;80;21113;-64
2021/11/29 05:54:11;;;;;;;11.75;7.08;;;;;;;10.94;70.91;98397.58;1763843;79;21043;-67
2021/11/29 05:56:38;;;;;;;13.72;7.40;;;;;;;10.94;71.00;98401.52;1758328;80;21052;-64
2021/11/29 05:59:05;;;;;;;13.58;8.38;;;;;;;11.02;70.91;98395.38;1765662;80;21054;-64
2021/11/29 06:01:32;;;;;;;16.27;8.35;;;;;;;11.10;70.84;98396.64;1764128;80;21046;-66
2021/11/29 06:03:59;;;;;;;14.75;7.85;;;;;;;11.17;70.74;98399.39;1762294;80;21137;-65
2021/11/29 06:06:25;;;;;;;14.35;9.70;;;;;;;11.19;70.66;98397.39;1763203;79;21062;-66
2021/11/29 06:08:52;;;;;;;15.85;8.68;;;;;;;11.17;70.56;98394.13;1769433;80;21042;-65
2021/11/29 06:11:19;;;;;;;14.40;8.83;;;;;;;11.13;70.47;98398.11;1761622;79;21588;-67
2021/11/29 06:13:46;;;;;;;24.70;9.20;;;;;;;11.09;70.69;98391.03;1763223;80;21066;-66
2021/11/29 06:16:13;;;;;;;11.53;6.92;;;;;;;11.07;70.63;98389.59;1757860;80;21074;-68
2021/11/29 06:18:40;;;;;;;12.82;7.45;;;;;;;11.09;70.54;98402.07;1766782;80;21058;-66
2021/11/29 06:21:07;;;;;;;13.88;8.30;;;;;;;11.15;70.34;98406.65;1738480;80;21138;-67
2021/11/29 06:23:34;;;;;;;14.68;7.75;;;;;;;11.18;70.44;98398.41;1768772;80;21122;-69
2021/11/29 06:26:00;;;;;;;20.62;8.48;;;;;;;11.23;70.36;98400.48;1771067;80;21478;-67
2021/11/29 06:28:27;;;;;;;12.55;8.25;;;;;;;11.26;70.40;98402.78;1757814;80;22298;-68
2021/11/29 06:30:55;;;;;;;15.40;8.80;;;;;;;11.24;70.45;98396.37;1757073;80;21098;-66
2021/11/29 06:33:23;;;;;;;15.00;9.55;;;;;;;11.21;70.62;98392.77;1766414;80;21058;-66
2021/11/29 06:35:51;;;;;;;19.87;10.40;;;;;;;11.20;70.58;98394.28;1771519;80;21054;-68
2021/11/29 06:38:17;;;;;;;16.48;10.48;;;;;;;11.15;70.57;98378.50;1776765;79;21051;-67
2021/11/29 06:40:51;;;;;;;15.72;9.50;;;;;;;11.10;70.73;98382.67;1766192;80;21161;-69
2021/11/29 06:43:18;;;;;;;17.70;8.65;;;;;;;11.12;70.79;98364.88;1739846;80;21085;-67
2021/11/29 06:45:45;;;;;;;17.17;9.13;;;;;;;11.19;70.74;98357.91;1670883;84;21078;-68
2021/11/29 06:48:12;;;;;;;16.23;9.68;;;;;;;11.26;70.77;98351.44;1725985;82;21094;-68
2021/11/29 06:50:38;;;;;;;23.42;11.30;;;;;;;11.30;70.64;98339.06;1724863;81;21424;-70
2021/11/29 06:53:06;;;;;;;16.30;9.40;;;;;;;11.29;70.79;98333.98;1728384;82;21118;-68
2021/11/29 06:55:33;;;;;;;16.15;9.90;;;;;;;11.30;70.75;98334.31;1697982;82;21109;-66
2021/11/29 06:58:02;;;;;;;15.45;10.53;;;;;;;11.31;70.88;98321.45;1731542;82;21105;-68
2021/11/29 07:00:31;;;;;;;15.55;8.68;;;;;;;11.32;70.66;98320.46;1725358;80;21075;-63
2021/11/29 07:02:57;;;;;;;15.43;9.83;;;;;;;11.37;70.59;98310.72;1730156;81;21549;-65
2021/11/29 07:05:26;;;;;;;15.15;9.65;;;;;;;11.45;70.40;98302.23;1731871;81;21149;-64
2021/11/29 07:07:53;;;;;;;18.50;10.25;;;;;;;11.50;70.27;98295.93;1702028;82;21083;-62
2021/11/29 07:10:20;;;;;;;20.08;11.25;;;;;;;11.56;70.26;98292.25;1726499;81;21123;-62
2021/11/29 07:12:49;;;;;;;22.85;11.18;;;;;;;11.62;70.21;98284.45;1729469;81;21081;-62
2021/11/29 07:15:17;;;;;;;17.30;9.95;;;;;;;11.66;70.51;98282.27;1706465;82;21092;-63
2021/11/29 07:17:43;;;;;;;19.73;9.98;;;;;;;11.71;70.34;98280.71;1719620;82;21209;-65
2021/11/29 07:20:10;;;;;;;15.55;8.48;;;;;;;11.77;70.20;98278.34;1728867;82;21062;-63
2021/11/29 07:22:36;;;;;;;14.98;8.08;;;;;;;11.77;69.95;98267.81;1730086;80;21079;-67
2021/11/29 07:25:04;;;;;;;13.65;8.50;;;;;;;11.74;69.90;98269.52;1725046;81;21086;-66
2021/11/29 07:27:32;;;;;;;16.27;7.45;;;;;;;11.76;69.77;98272.27;1724828;81;21636;-66
2021/11/29 07:29:59;;;;;;;10.53;6.33;;;;;;;11.80;69.50;98270.92;1724106;81;21088;-65
2021/11/29 07:32:29;;;;;;;13.22;7.28;;;;;;;11.84;69.50;98269.55;1724066;81;21075;-65
2021/11/29 07:34:55;;;;;;;11.38;7.85;;;;;;;11.86;69.50;98268.05;1725240;82;21090;-68
2021/11/29 07:37:22;;;;;;;15.00;8.18;;;;;;;11.83;69.51;98261.31;1728340;81;21118;-69
2021/11/29 07:39:49;;;;;;;11.20;7.90;;;;;;;11.83;69.57;98259.99;1727477;82;21419;-70
2021/11/29 07:42:15;;;;;;;18.42;7.15;;;;;;;11.82;69.61;98258.89;1735749;80;21402;-68
2021/11/29 07:44:47;;;;;;;11.45;7.53;;;;;;;11.83;69.47;98263.14;1762104;79;21086;-65
2021/11/29 07:47:11;;;;;;;10.55;7.00;;;;;;;11.80;69.50;98248.53;1699439;82;21083;-66
2021/11/29 07:49:38;;;;;;;11.57;6.28;;;;;;;11.86;69.26;98254.87;1696099;83;21102;-65
2021/11/29 07:52:05;;;;;;;9.75;6.05;;;;;;;11.93;68.95;98252.35;1706175;82;21066;-62
2021/11/29 07:54:34;;;;;;;10.68;6.47;;;;;;;11.97;68.63;98253.61;1708261;82;21126;-63
2021/11/29 07:57:01;;;;;;;15.55;7.42;;;;;;;11.98;68.77;98248.16;1716854;82;21114;-63
2021/11/29 07:59:33;;;;;;;12.15;7.15;;;;;;;11.99;68.91;98244.53;1704828;82;21156;-64
2021/11/29 08:02:01;;;;;;;12.75;6.65;;;;;;;12.02;68.97;98240.69;1682295;82;21101;-63
2021/11/29 08:04:27;;;;;;;10.50;6.12;;;;;;;12.02;68.80;98239.38;1710265;82;21098;-64
2021/11/29 08:06:54;;;;;;;11.57;7.20;;;;;;;12.00;68.78;98234.80;1684057;83;21006;-63
2021/11/29 08:09:21;;;;;;;10.70;6.15;;;;;;;11.96;68.82;98230.40;1723965;81;21102;-66
2021/11/29 08:11:47;;;;;;;14.07;5.95;;;;;;;11.96;68.92;98221.68;1709730;81;21098;-64
2021/11/29 08:14:14;;;;;;;12.90;5.97;;;;;;;12.00;68.92;98211.91;1708978;83;21109;-65
2021/11/29 08:16:40;;;;;;;11.88;5.45;;;;;;;12.04;68.83;98203.94;1714259;82;21110;-64
2021/11/29 08:19:06;;;;;;;11.35;6.45;;;;;;;12.08;68.95;98200.42;1712317;82;21120;-68
2021/11/29 08:21:34;;;;;;;10.90;6.30;;;;;;;12.12;69.02;98198.23;1717588;82;21613;-67
2021/11/29 08:24:00;;;;;;;10.82;6.40;;;;;;;12.11;68.91;98182.92;1713376;82;21728;-66
2021/11/29 08:26:28;;;;;;;9.85;6.85;;;;;;;12.07;68.85;98177.20;1713215;82;21134;-65
2021/11/29 08:28:54;;;;;;;12.55;6.62;;;;;;;12.02;68.93;98170.36;1692558;83;21109;-69
2021/11/29 08:31:21;;;;;;;12.45;7.28;;;;;;;11.96;69.02;98175.05;1709209;82;22090;-72
2021/11/29 08:33:49;;;;;;;10.90;7.03;;;;;;;11.89;69.33;98173.63;1712099;82;21109;-68
2021/11/29 08:36:16;;;;;;;10.90;6.62;;;;;;;11.88;69.47;98169.86;1711927;82;21146;-66
2021/11/29 08:38:43;;;;;;;13.40;7.25;;;;;;;11.92;69.37;98163.73;1712311;82;21065;-66
2021/11/29 08:41:09;;;;;;;10.80;5.83;;;;;;;11.92;69.44;98151.41;1711487;82;21609;-65
2021/11/29 08:43:38;;;;;;;13.28;6.95;;;;;;;11.92;69.67;98144.81;1700899;83;21138;-66
2021/11/29 08:46:05;;;;;;;11.60;6.90;;;;;;;11.92;69.90;98129.00;1699223;83;21115;-73
2021/11/29 08:48:33;;;;;;;13.98;8.20;;;;;;;11.90;70.11;98120.41;1696891;83;21518;-66
2021/11/29 08:50:59;;;;;;;11.93;7.37;;;;;;;11.86;70.43;98121.80;1689976;83;21637;-68
2021/11/29 08:53:26;;;;;;;13.15;7.58;;;;;;;11.84;70.57;98118.55;1684809;83;21486;-65
2021/11/29 08:55:54;;;;;;;12.98;7.30;;;;;;;11.81;70.79;98114.45;1697616;83;21728;-61
2021/11/29 08:58:22;;;;;;;12.03;6.47;;;;;;;11.82;70.81;98108.70;1684043;83;21142;-64
2021/11/29 09:00:52;;;;;;;10.85;6.37;;;;;;;11.89;70.82;98099.03;1697561;83;21144;-69
2021/11/29 09:03:19;;;;;;;10.08;5.72;;;;;;;11.95;70.81;98084.31;1749625;80;21035;-68
2021/11/29 09:05:46;;;;;;;12.53;6.47;;;;;;;11.99;70.81;98080.31;1720966;81;21113;-65
2021/11/29 09:08:14;;;;;;;12.55;7.47;;;;;;;12.00;70.92;98077.48;1756683;80;21285;-64
2021/11/29 09:10:43;;;;;;;12.75;7.20;;;;;;;11.99;71.16;98060.03;1735212;80;21079;-67
2021/11/29 09:13:10;;;;;;;12.58;7.08;;;;;;;11.99;71.15;98056.08;1733399;80;21055;-70
2021/11/29 09:15:38;;;;;;;14.47;7.75;;;;;;;11.96;71.19;98049.87;1750443;80;21051;-70
2021/11/29 09:18:05;;;;;;;13.10;6.92;;;;;;;11.92;71.32;98039.40;1746009;80;21066;-70
2021/11/29 09:20:32;;;;;;;12.50;6.42;;;;;;;11.93;71.41;98027.84;1754611;80;21455;-71
2021/11/29 09:22:59;;;;;;;11.45;7.03;;;;;;;12.00;71.40;98030.05;1750722;80;21724;-69
2021/11/29 09:25:26;;;;;;;11.65;5.95;;;;;;;12.05;71.47;98025.02;1759520;79;21075;-70
2021/11/29 09:27:53;;;;;;;11.45;6.35;;;;;;;12.13;71.36;98018.78;1747989;80;21114;-62
2021/11/29 09:30:19;;;;;;;11.50;6.90;;;;;;;12.20;71.38;98012.24;1691242;82;21105;-65
2021/11/29 09:32:46;;;;;;;11.50;7.47;;;;;;;12.23;71.47;98003.95;1757024;80;22094;-69
2021/11/29 09:35:15;;;;;;;13.88;7.80;;;;;;;12.26;71.54;97995.16;1757830;80;21700;-67
2021/11/29 09:37:42;;;;;;;13.15;7.12;;;;;;;12.30;71.34;97994.27;1755821;80;21125;-66
2021/11/29 09:40:14;;;;;;;11.95;6.65;;;;;;;12.31;71.23;97996.42;1758550;80;21546;-67
2021/11/29 09:42:40;;;;;;;8.35;5.87;;;;;;;12.35;71.03;97987.10;1753406;80;21028;-66
2021/11/29 09:45:09;;;;;;;9.85;5.87;;;;;;;12.43;70.78;97982.48;1754472;80;21110;-68
2021/11/29 09:47:36;;;;;;;10.32;5.92;;;;;;;12.49;70.75;97963.77;1741191;80;21105;-70
2021/11/29 09:50:05;;;;;;;12.40;6.92;;;;;;;12.56;70.57;97951.42;1723303;81;21047;-65
2021/11/29 09:52:33;;;;;;;11.48;7.35;;;;;;;12.58;70.42;97939.36;1737586;80;21669;-66
2021/11/29 09:54:59;;;;;;;12.03;7.08;;;;;;;12.56;70.58;97929.00;1761192;80;21019;-66
2021/11/29 09:57:26;;;;;;;10.60;7.12;;;;;;;12.58;70.64;97923.53;1734472;80;22036;-67
2021/11/29 09:59:52;;;;;;;11.00;7.08;;;;;;;12.62;70.58;97914.20;1746113;80;21090;-70
2021/11/29 10:02:18;;;;;;;11.38;6.72;;;;;;;12.62;70.50;97907.61;1753431;80;21055;-66
2021/11/29 10:04:48;;;;;;;9.95;6.25;;;;;;;12.65;70.37;97903.26;1762129;80;21829;-68
2021/11/29 10:07:30;;;;;;;11.00;7.10;;;;;;;12.70;70.20;97907.44;1740601;80;21003;-68
2021/11/29 10:10:14;;;;;;;12.65;7.05;;;;;;;12.71;70.15;97909.08;1739659;80;21077;-70
2021/11/29 10:12:41;;;;;;;13.15;8.03;;;;;;;12.72;70.23;97908.56;1754613;80;21047;-68
2021/11/29 10:15:28;;;;;;;11.70;8.15;;;;;;;12.68;70.40;97919.22;1755032;80;21122;-67
2021/11/29 10:18:23;;;;;;;14.70;9.45;;;;;;;12.63;70.50;97915.84;1757013;80;21094;-69
2021/11/29 10:21:06;;;;;;;13.22;8.43;;;;;;;12.60;70.63;97910.95;1759193;80;21016;-67
2021/11/29 10:23:52;;;;;;;11.33;7.05;;;;;;;12.56;70.67;97897.86;1748918;80;21150;-67
2021/11/29 10:26:25;;;;;;;;;;;;;;;12.54;70.64;97879.59;1774992;80;21015;-67
2021/11/29 10:28:59;;;;;;;10.25;6.03;;;;;;;12.59;70.52;97878.49;1745429;80;20220;-66
2021/11/29 10:31:32;;;;;;;10.63;6.35;;;;;;;12.58;70.58;97876.05;1761479;80;21169;-66
2021/11/29 10:34:06;;;;;;;11.35;6.92;;;;;;;12.58;70.47;97867.63;1760729;80;21062;-67
2021/11/29 10:36:47;;;;;;;15.80;7.57;;;;;;;12.59;70.68;97863.98;1694539;82;21244;-67
2021/11/29 10:39:21;;;;;;;13.08;7.60;;;;;;;12.59;70.68;97863.98;1751852;80;21376;-68
2021/11/29 10:41:55;;;;;;;12.35;6.95;;;;;;;12.60;70.63;97864.79;1720126;82;21095;-67
2021/11/29 10:44:32;;;;;;;11.90;6.60;;;;;;;12.57;70.61;97854.63;1750075;80;21118;-70
2021/11/29 10:47:05;;;;;;;10.55;5.75;;;;;;;12.54;70.73;97855.02;1706982;81;21123;-66
2021/11/29 10:49:37;;;;;;;9.85;5.67;;;;;;;12.57;70.77;97853.31;1742476;81;21135;-66
2021/11/29 10:52:09;;;;;;;9.08;5.60;;;;;;;12.63;70.43;97847.25;1739226;80;22226;-66
2021/11/29 10:54:39;;;;;;;11.05;6.62;;;;;;;12.67;70.32;97845.03;1738929;80;21042;-68
2021/11/29 10:57:07;;;;;;;14.13;6.87;;;;;;;12.71;70.45;97840.97;1742837;80;21080;-64
2021/11/29 10:59:37;;;;;;;12.37;7.28;;;;;;;12.77;70.54;97838.34;1748560;81;21019;-65
2021/11/29 11:02:12;;;;;;;11.80;7.45;;;;;;;12.81;70.37;97827.72;1743845;81;21143;-67
2021/11/29 11:04:44;;;;;;;12.37;7.28;;;;;;;12.88;70.33;97828.22;1749852;80;21004;-68
2021/11/29 11:07:22;;;;;;;12.40;7.70;;;;;;;12.90;70.03;97821.73;1747378;80;21040;-65
2021/11/29 11:09:56;;;;;;;11.63;7.55;;;;;;;12.92;69.72;97821.54;1746164;80;21560;-66
2021/11/29 11:12:26;;;;;;;9.88;6.15;;;;;;;12.87;69.66;97811.58;1740198;80;21017;-69
2021/11/29 11:14:55;;;;;;;13.20;6.33;;;;;;;12.89;69.66;97809.54;1709404;81;21727;-69
2021/11/29 11:17:25;;;;;;;10.68;5.70;;;;;;;12.97;69.31;97805.91;1745337;81;21586;-69
2021/11/29 11:19:56;;;;;;;10.30;6.22;;;;;;;13.00;69.16;97793.64;1738714;80;21554;-69
2021/11/29 11:22:31;;;;;;;12.28;6.45;;;;;;;13.04;69.16;97790.08;1680136;83;21504;-69
2021/11/29 11:25:11;;;;;;;10.95;6.72;;;;;;;13.08;69.00;97783.37;1738982;80;21086;-69
2021/11/29 11:28:02;;;;;;;13.45;7.25;;;;;;;13.05;68.92;97778.00;1708007;81;21051;-69
2021/11/29 11:30:33;;;;;;;13.53;7.55;;;;;;;13.01;68.96;97772.80;1742918;80;21103;-69
2021/11/29 11:33:11;;;;;;;11.43;6.83;;;;;;;12.98;68.96;97764.80;1742408;80;21602;-69